Time;durP1;ratioP1;P1;durP2;ratioP2;P2;SDS_P1;SDS_P2;PMS_P1;PMS_P2;Temp;Humidity;BMP_temperature;BMP_pressure;BME280_temperature;BME280_humidity;BME280_pressure;Samples;Min_cycle;Max_cycle;Signal;HPM_P1;HPM_P2
2023/03/24 00:01:36;;;;;;;5.97;5.07;;;10.00;99.90;;;;;;4997844;28;20566;-80
2023/03/24 00:04:03;;;;;;;7.15;4.30;;;10.00;99.90;;;;;;4985310;28;20065;-79
2023/03/24 00:06:33;;;;;;;7.30;4.82;;;10.00;99.90;;;;;;4999257;28;20041;-79
2023/03/24 00:09:02;;;;;;;20.10;13.45;;;10.10;99.90;;;;;;4986047;28;20100;-79
2023/03/24 00:11:33;;;;;;;8.35;4.38;;;10.10;99.90;;;;;;5003029;28;20046;-78
2023/03/24 00:14:01;;;;;;;6.93;4.32;;;10.20;99.90;;;;;;4989069;28;20145;-79
2023/03/24 00:16:28;;;;;;;6.75;3.97;;;10.30;99.90;;;;;;4980717;28;20141;-78
2023/03/24 00:18:55;;;;;;;8.88;4.95;;;10.40;99.90;;;;;;4984211;28;20057;-78
2023/03/24 00:21:24;;;;;;;6.63;5.95;;;10.60;99.90;;;;;;4982832;28;20037;-78
2023/03/24 00:23:53;;;;;;;10.57;6.30;;;10.70;99.90;;;;;;4999749;28;20050;-78
2023/03/24 00:26:20;;;;;;;4.10;3.70;;;10.80;99.90;;;;;;4998684;28;20062;-78
2023/03/24 00:28:48;;;;;;;6.70;5.38;;;10.90;99.90;;;;;;5006118;28;20104;-78
2023/03/24 00:31:16;;;;;;;5.47;4.70;;;10.90;99.90;;;;;;4982557;28;20136;-78
2023/03/24 00:33:49;;;;;;;5.15;4.68;;;11.00;99.90;;;;;;4999451;28;20104;-79
2023/03/24 00:36:19;;;;;;;7.22;4.95;;;11.00;99.90;;;;;;4998190;28;20591;-78
2023/03/24 00:38:47;;;;;;;5.25;4.85;;;11.10;99.90;;;;;;5000749;28;20050;-78
2023/03/24 00:41:16;;;;;;;5.25;4.85;;;11.10;99.90;;;;;;4982856;28;20499;-78
2023/03/24 00:43:43;;;;;;;6.53;4.95;;;11.10;99.90;;;;;;4984121;28;20046;-78
2023/03/24 00:46:27;;;;;;;6.38;5.78;;;11.10;99.90;;;;;;4981826;28;20092;-77
2023/03/24 00:49:04;;;;;;;7.78;5.18;;;11.00;99.90;;;;;;5005141;28;20477;-78
2023/03/24 00:51:41;;;;;;;5.00;4.20;;;11.00;99.90;;;;;;5000102;28;20076;-78
2023/03/24 00:54:11;;;;;;;5.20;4.80;;;11.00;99.90;;;;;;4997018;28;20105;-79
2023/03/24 00:56:39;;;;;;;4.80;4.40;;;11.10;99.90;;;;;;5001042;28;20071;-78
2023/03/24 00:59:08;;;;;;;4.90;4.10;;;11.10;99.90;;;;;;5001889;28;20157;-77
2023/03/24 01:01:39;;;;;;;5.22;4.32;;;11.10;99.90;;;;;;4999053;28;20069;-79
2023/03/24 01:04:08;;;;;;;4.78;4.30;;;11.10;99.90;;;;;;4999790;28;20046;-79
2023/03/24 01:06:37;;;;;;;5.03;4.22;;;11.10;99.90;;;;;;4983937;28;20066;-76
2023/03/24 01:09:04;;;;;;;5.20;4.80;;;11.10;99.90;;;;;;4986127;28;20064;-79
2023/03/24 01:11:37;;;;;;;5.57;4.32;;;11.10;99.90;;;;;;5003030;28;20415;-79
2023/03/24 01:14:04;;;;;;;4.43;4.03;;;11.20;99.90;;;;;;5003309;28;20053;-79
2023/03/24 01:16:31;;;;;;;4.57;3.50;;;11.20;99.90;;;;;;5000069;28;20108;-77
2023/03/24 01:18:58;;;;;;;4.57;4.30;;;11.20;99.90;;;;;;5002756;28;20446;-79
2023/03/24 01:21:25;;;;;;;8.60;4.60;;;11.30;99.90;;;;;;4986034;28;20108;-77
2023/03/24 01:23:53;;;;;;;4.63;4.30;;;11.30;99.90;;;;;;4987616;28;20491;-78
2023/03/24 01:26:19;;;;;;;5.03;4.63;;;11.30;99.90;;;;;;5003118;28;20061;-79
2023/03/24 01:28:46;;;;;;;4.82;4.40;;;11.30;99.90;;;;;;5009753;28;20363;-79
2023/03/24 01:31:13;;;;;;;4.90;4.57;;;11.40;99.90;;;;;;5003856;28;20150;-78
2023/03/24 01:33:40;;;;;;;4.68;4.38;;;11.30;99.90;;;;;;4987942;28;20053;-79
2023/03/24 01:36:07;;;;;;;4.35;4.05;;;11.40;99.90;;;;;;4989775;28;20061;-77
2023/03/24 01:38:35;;;;;;;5.20;4.80;;;11.30;99.90;;;;;;4983928;28;20224;-80
2023/03/24 01:41:04;;;;;;;5.70;5.20;;;11.40;99.90;;;;;;5003422;28;20411;-78
2023/03/24 01:43:33;;;;;;;4.80;4.50;;;11.40;99.90;;;;;;4987733;28;20140;-78
2023/03/24 01:46:20;;;;;;;6.72;4.50;;;11.40;99.90;;;;;;4987387;28;20045;-79
2023/03/24 01:48:57;;;;;;;4.93;4.60;;;11.40;99.90;;;;;;4985798;28;20077;-79
2023/03/24 01:51:38;;;;;;;4.95;4.63;;;11.40;99.90;;;;;;5005005;28;20137;-79
2023/03/24 01:54:22;;;;;;;5.40;5.00;;;11.50;99.90;;;;;;5002875;28;20038;-77
2023/03/24 01:57:01;;;;;;;4.82;4.40;;;11.50;99.90;;;;;;5002379;28;20508;-78
2023/03/24 01:59:31;;;;;;;5.28;4.90;;;11.50;99.90;;;;;;5002258;28;20077;-78
2023/03/24 02:02:09;;;;;;;5.63;5.22;;;11.50;99.90;;;;;;4983197;28;20049;-78
2023/03/24 02:04:49;;;;;;;5.50;5.13;;;11.40;99.90;;;;;;5003823;28;20064;-79
2023/03/24 02:07:37;;;;;;;5.30;4.90;;;11.50;99.90;;;;;;4985674;28;20052;-77
2023/03/24 02:10:08;;;;;;;5.85;5.10;;;11.50;99.90;;;;;;4983079;28;20046;-80
2023/03/24 02:12:35;;;;;;;6.30;5.80;;;11.50;99.90;;;;;;4984573;28;20136;-78
2023/03/24 02:15:08;;;;;;;5.95;5.50;;;11.50;99.90;;;;;;5007235;28;20046;-78
2023/03/24 02:18:00;;;;;;;6.70;6.20;;;11.50;99.90;;;;;;5003820;28;20415;-79
2023/03/24 02:20:27;;;;;;;6.13;5.72;;;11.60;99.90;;;;;;4986806;28;20108;-78
2023/03/24 02:23:13;;;;;;;7.32;6.82;;;11.60;99.90;;;;;;4991372;28;20054;-78
2023/03/24 02:25:40;;;;;;;7.03;6.53;;;11.60;99.90;;;;;;5004328;28;20138;-77
2023/03/24 02:28:22;;;;;;;7.40;6.90;;;11.70;99.90;;;;;;4994085;28;20137;-77
2023/03/24 02:31:22;;;;;;;7.07;6.68;;;11.60;99.90;;;;;;5008725;28;20077;-77
2023/03/24 02:34:24;;;;;;;7.40;6.90;;;11.60;99.90;;;;;;4989737;28;20042;-78
2023/03/24 02:37:26;;;;;;;7.20;6.63;;;11.60;99.90;;;;;;4990045;28;20037;-78
2023/03/24 02:40:10;;;;;;;7.47;6.05;;;11.30;99.90;;;;;;4999690;28;20124;-78
2023/03/24 02:42:49;;;;;;;6.97;6.28;;;11.20;99.90;;;;;;5006918;28;20076;-78
2023/03/24 02:45:49;;;;;;;7.10;5.47;;;11.00;99.90;;;;;;5002391;28;20045;-78
2023/03/24 02:48:30;;;;;;;8.05;5.97;;;11.00;99.90;;;;;;4979392;28;20057;-78
2023/03/24 02:51:25;;;;;;;6.97;5.40;;;10.90;99.90;;;;;;5005341;28;20046;-78
2023/03/24 02:54:20;;;;;;;10.52;5.88;;;10.80;99.90;;;;;;4978497;28;20137;-79
2023/03/24 02:56:55;;;;;;;6.55;5.95;;;10.60;99.90;;;;;;4999157;28;20133;-79
2023/03/24 02:59:56;;;;;;;9.65;6.40;;;10.60;99.90;;;;;;5002525;28;20092;-79
2023/03/24 03:02:47;;;;;;;8.95;7.15;;;10.60;99.90;;;;;;5002368;28;20664;-79
2023/03/24 03:05:22;;;;;;;8.90;6.22;;;10.50;99.90;;;;;;4982843;28;20042;-78
2023/03/24 03:07:51;;;;;;;17.23;7.97;;;10.40;99.90;;;;;;5005964;28;20104;-78
2023/03/24 03:10:27;;;;;;;11.95;8.95;;;10.40;99.90;;;;;;5001346;28;20177;-78
2023/03/24 03:12:57;;;;;;;11.55;8.85;;;10.40;99.90;;;;;;4986258;28;20729;-79
2023/03/24 03:15:28;;;;;;;9.75;8.27;;;10.40;99.90;;;;;;4984554;28;20617;-79
2023/03/24 03:18:15;;;;;;;13.48;10.18;;;10.40;99.90;;;;;;5003120;28;20050;-78
2023/03/24 03:20:49;;;;;;;15.70;10.20;;;10.40;99.90;;;;;;4997439;28;20315;-78
2023/03/24 03:23:24;;;;;;;11.37;8.40;;;10.50;99.90;;;;;;4988958;28;20056;-79
2023/03/24 03:25:56;;;;;;;15.45;9.55;;;10.50;99.90;;;;;;4986239;28;20530;-78
2023/03/24 03:28:28;;;;;;;16.25;10.02;;;10.50;99.90;;;;;;5002123;28;20137;-77
2023/03/24 03:31:00;;;;;;;14.88;11.05;;;10.50;99.90;;;;;;5000862;28;20077;-79
2023/03/24 03:33:35;;;;;;;15.38;10.70;;;10.50;99.90;;;;;;5008448;28;20126;-79
2023/03/24 03:36:25;;;;;;;12.50;10.07;;;10.50;99.90;;;;;;5000522;28;20057;-78
2023/03/24 03:39:10;;;;;;;15.20;11.05;;;10.50;99.90;;;;;;5001120;28;20077;-78
2023/03/24 03:41:39;;;;;;;15.27;11.85;;;10.50;99.90;;;;;;4997069;28;20060;-79
2023/03/24 03:44:06;;;;;;;12.88;10.88;;;10.50;99.90;;;;;;4983291;28;20053;-78
2023/03/24 03:46:34;;;;;;;16.35;11.63;;;10.50;99.90;;;;;;4980598;28;20044;-78
2023/03/24 03:49:06;;;;;;;14.18;10.65;;;10.50;99.90;;;;;;4986817;28;20322;-79
2023/03/24 03:51:34;;;;;;;14.50;11.32;;;10.50;99.90;;;;;;4973124;28;20046;-79
2023/03/24 03:54:10;;;;;;;16.65;12.07;;;10.50;99.90;;;;;;5001348;28;20042;-78
2023/03/24 03:56:37;;;;;;;14.50;11.05;;;10.50;99.90;;;;;;4985804;28;20034;-78
2023/03/24 03:59:33;;;;;;;15.07;11.50;;;10.60;99.90;;;;;;5000219;28;20151;-77
2023/03/24 04:02:29;;;;;;;13.32;9.80;;;10.60;99.90;;;;;;5000983;28;20062;-78
2023/03/24 04:05:17;;;;;;;13.35;9.90;;;10.50;99.90;;;;;;4984164;28;20046;-78
2023/03/24 04:08:16;;;;;;;13.63;11.23;;;10.60;99.90;;;;;;4989973;28;20045;-78
2023/03/24 04:11:09;;;;;;;16.15;10.35;;;10.60;99.90;;;;;;4993548;28;20746;-79
2023/03/24 04:14:01;;;;;;;16.23;11.45;;;10.60;99.90;;;;;;4995366;28;20081;-79
2023/03/24 04:17:06;;;;;;;14.10;10.15;;;10.60;99.90;;;;;;4995141;28;20034;-78
2023/03/24 04:20:04;;;;;;;14.00;11.38;;;10.60;99.90;;;;;;4998200;28;20038;-78
2023/03/24 04:22:52;;;;;;;16.48;11.30;;;10.60;99.90;;;;;;4981681;28;20038;-80
2023/03/24 04:26:04;;;;;;;14.30;10.50;;;10.60;99.90;;;;;;4997421;28;20582;-79
2023/03/24 04:28:46;;;;;;;12.23;10.93;;;10.60;99.90;;;;;;4983526;28;20054;-79
2023/03/24 04:31:36;;;;;;;13.85;10.85;;;10.60;99.90;;;;;;4990943;28;20207;-79
2023/03/24 04:34:14;;;;;;;15.90;10.02;;;10.60;99.90;;;;;;5001270;28;20672;-78
2023/03/24 04:36:49;;;;;;;14.38;11.27;;;10.60;99.90;;;;;;5002340;28;20642;-78
2023/03/24 04:39:27;;;;;;;15.30;12.45;;;10.60;99.90;;;;;;5001948;28;20818;-77
2023/03/24 04:41:58;;;;;;;13.63;10.70;;;10.60;99.90;;;;;;5001242;28;20525;-78
2023/03/24 04:44:28;;;;;;;16.70;11.90;;;10.60;99.90;;;;;;5000528;28;20056;-77
2023/03/24 04:47:15;;;;;;;12.85;10.13;;;10.70;99.90;;;;;;4995516;28;20072;-80
2023/03/24 04:50:01;;;;;;;13.55;10.02;;;10.70;99.90;;;;;;4999020;28;20722;-79
2023/03/24 04:52:28;;;;;;;14.70;10.50;;;10.70;99.90;;;;;;4995704;28;20054;-80
2023/03/24 04:54:55;;;;;;;13.27;10.00;;;10.70;99.90;;;;;;4981711;28;20042;-78
2023/03/24 04:57:22;;;;;;;12.77;10.80;;;10.80;99.90;;;;;;4981357;28;20038;-77
2023/03/24 04:59:56;;;;;;;13.23;10.15;;;10.80;99.90;;;;;;5000170;28;20076;-77
2023/03/24 05:02:22;;;;;;;11.73;8.77;;;10.80;99.90;;;;;;4986363;28;20048;-76
2023/03/24 05:05:04;;;;;;;11.38;9.80;;;10.80;99.90;;;;;;4981009;28;20050;-78
2023/03/24 05:07:41;;;;;;;13.73;9.30;;;10.90;99.90;;;;;;4972669;28;20058;-78
2023/03/24 05:10:14;;;;;;;8.98;7.97;;;10.90;99.90;;;;;;4997229;28;20076;-77
2023/03/24 05:12:47;;;;;;;10.20;8.70;;;10.90;99.90;;;;;;4994302;28;20045;-79
2023/03/24 05:15:37;;;;;;;11.43;9.00;;;11.00;99.90;;;;;;5002150;28;20058;-78
2023/03/24 05:18:19;;;;;;;7.78;6.32;;;11.00;99.90;;;;;;4998223;28;20049;-77
2023/03/24 05:20:45;;;;;;;7.53;6.63;;;11.10;99.90;;;;;;5000159;28;20041;-77
2023/03/24 05:23:17;;;;;;;7.28;5.55;;;11.20;99.90;;;;;;4980918;28;20039;-77
2023/03/24 05:25:48;;;;;;;7.45;6.43;;;11.20;99.90;;;;;;5003139;28;20038;-77
2023/03/24 05:28:15;;;;;;;8.05;6.82;;;11.30;99.90;;;;;;5004784;28;20042;-77
2023/03/24 05:30:42;;;;;;;7.82;6.97;;;11.40;99.90;;;;;;4983491;28;20041;-76
2023/03/24 05:33:32;;;;;;;6.85;6.13;;;11.50;99.90;;;;;;4989287;28;20042;-77
2023/03/24 05:36:00;;;;;;;7.53;6.47;;;11.50;99.90;;;;;;4984742;28;20053;-77
2023/03/24 05:38:27;;;;;;;6.80;6.20;;;11.50;99.90;;;;;;5000063;28;20181;-77
2023/03/24 05:40:57;;;;;;;7.93;7.13;;;11.60;99.90;;;;;;4996783;28;20052;-76
2023/03/24 05:43:26;;;;;;;7.28;6.60;;;11.60;99.90;;;;;;5000687;28;20111;-79
2023/03/24 05:46:06;;;;;;;6.82;6.32;;;11.70;99.90;;;;;;5000573;28;20414;-77
2023/03/24 05:48:33;;;;;;;8.57;7.80;;;11.90;99.90;;;;;;4988892;28;20537;-77
2023/03/24 05:51:12;;;;;;;8.30;7.60;;;12.10;99.90;;;;;;4980269;28;20046;-76
2023/03/24 05:53:40;;;;;;;9.13;8.27;;;12.10;99.90;;;;;;5003246;28;20050;-78
2023/03/24 05:56:12;;;;;;;8.65;7.95;;;12.10;99.90;;;;;;5001744;28;20560;-76
2023/03/24 05:58:54;;;;;;;7.43;6.82;;;12.20;99.90;;;;;;5003882;28;20133;-79
2023/03/24 06:01:27;;;;;;;7.47;6.78;;;12.10;99.90;;;;;;4985645;28;20065;-77
2023/03/24 06:04:01;;;;;;;6.30;5.70;;;12.00;99.90;;;;;;5002570;28;20052;-77
2023/03/24 06:06:28;;;;;;;7.75;6.68;;;12.00;99.90;;;;;;5004855;28;20053;-78
2023/03/24 06:08:57;;;;;;;7.38;6.63;;;11.90;99.90;;;;;;4991077;28;20046;-76
2023/03/24 06:11:25;;;;;;;6.50;5.50;;;11.80;99.90;;;;;;4993936;28;20721;-79
2023/03/24 06:14:00;;;;;;;;;;;11.70;99.90;;;;;;5005165;28;20042;-75
2023/03/24 06:16:37;;;;;;;6.00;2.97;;;11.70;99.90;;;;;;5001811;28;19925;-80
2023/03/24 06:19:05;;;;;;;13.25;3.75;;;11.30;99.90;;;;;;5005324;28;20215;-81
2023/03/24 06:21:50;;;;;;;6.65;2.95;;;10.50;99.90;;;;;;4990244;28;20474;-81
2023/03/24 06:24:21;;;;;;;4.82;2.40;;;10.10;99.90;;;;;;5004625;28;20049;-80
2023/03/24 06:26:49;;;;;;;8.27;2.92;;;9.90;99.90;;;;;;5009989;28;20073;-79
2023/03/24 06:29:16;;;;;;;5.03;2.72;;;9.90;99.90;;;;;;5008158;28;20061;-82
2023/03/24 06:31:45;;;;;;;4.35;2.92;;;9.90;99.90;;;;;;5008544;28;20042;-79
2023/03/24 06:34:11;;;;;;;4.97;3.00;;;9.90;99.90;;;;;;5009558;28;20053;-79
2023/03/24 06:36:39;;;;;;;6.18;3.72;;;10.00;99.90;;;;;;4992847;28;20137;-79
2023/03/24 06:39:07;;;;;;;5.47;4.38;;;10.00;99.90;;;;;;4989806;28;20343;-79
2023/03/24 06:41:35;;;;;;;9.57;5.05;;;10.10;99.90;;;;;;4986406;28;20143;-79
2023/03/24 06:44:02;;;;;;;11.18;5.72;;;10.20;99.90;;;;;;4996364;28;20034;-77
2023/03/24 06:46:29;;;;;;;6.70;5.40;;;10.40;99.90;;;;;;4998850;28;20048;-77
2023/03/24 06:48:56;;;;;;;8.80;6.15;;;10.60;99.90;;;;;;5002763;28;20073;-77
2023/03/24 06:51:23;;;;;;;9.23;5.95;;;10.70;99.90;;;;;;4982736;28;20204;-78
2023/03/24 06:53:50;;;;;;;9.85;6.43;;;10.80;99.90;;;;;;5004775;28;20054;-77
2023/03/24 06:56:19;;;;;;;8.23;6.22;;;10.90;99.90;;;;;;4999856;28;20132;-77
2023/03/24 06:58:51;;;;;;;9.13;6.50;;;10.90;99.90;;;;;;4986957;28;20104;-76
2023/03/24 07:01:28;;;;;;;6.82;6.22;;;11.00;99.90;;;;;;5000203;28;21537;-76
2023/03/24 07:03:58;;;;;;;7.78;5.90;;;11.00;99.90;;;;;;5003052;28;20077;-77
2023/03/24 07:06:34;;;;;;;9.13;7.35;;;11.00;99.90;;;;;;4997362;28;20053;-75
2023/03/24 07:09:12;;;;;;;8.32;7.00;;;11.00;99.90;;;;;;5004859;28;20042;-77
2023/03/24 07:11:40;;;;;;;8.32;6.80;;;11.00;99.90;;;;;;4986524;28;20045;-76
2023/03/24 07:14:06;;;;;;;7.72;6.93;;;11.10;99.90;;;;;;5002081;28;20054;-76
2023/03/24 07:16:35;;;;;;;8.00;7.20;;;11.00;99.90;;;;;;4999598;28;20100;-76
2023/03/24 07:19:31;;;;;;;8.63;7.05;;;11.00;99.90;;;;;;4989556;28;20082;-75
2023/03/24 07:22:39;;;;;;;9.45;8.45;;;11.10;99.90;;;;;;4996261;28;20620;-78
2023/03/24 07:25:29;;;;;;;11.68;9.13;;;11.20;99.90;;;;;;4997244;28;20483;-77
2023/03/24 07:28:14;;;;;;;11.43;9.73;;;11.20;99.90;;;;;;4999388;28;20045;-77
2023/03/24 07:30:41;;;;;;;11.43;10.32;;;11.10;99.90;;;;;;4983190;28;20056;-76
2023/03/24 07:33:11;;;;;;;12.40;10.65;;;11.10;99.90;;;;;;4982636;28;20137;-79
2023/03/24 07:35:40;;;;;;;11.38;10.38;;;11.10;99.90;;;;;;4985389;28;20503;-76
2023/03/24 07:38:09;;;;;;;14.15;11.38;;;11.10;99.90;;;;;;4985930;28;20558;-77
2023/03/24 07:40:35;;;;;;;11.98;10.75;;;11.00;99.90;;;;;;5001994;28;20038;-77
2023/03/24 07:43:04;;;;;;;12.43;11.13;;;11.00;99.90;;;;;;5000625;28;20553;-77
2023/03/24 07:46:02;;;;;;;14.60;13.20;;;10.90;99.90;;;;;;4991646;28;20042;-78
2023/03/24 07:48:31;;;;;;;13.98;12.52;;;10.80;99.90;;;;;;4998417;28;20038;-77
2023/03/24 07:50:58;;;;;;;12.77;11.50;;;10.80;99.90;;;;;;4982509;28;20072;-77
2023/03/24 07:53:54;;;;;;;14.32;12.82;;;10.80;99.90;;;;;;4999893;28;20042;-78
2023/03/24 07:56:47;;;;;;;11.48;10.38;;;10.90;99.90;;;;;;4995869;28;20054;-76
2023/03/24 07:59:14;;;;;;;11.05;9.82;;;10.90;99.90;;;;;;5000669;28;20050;-76
2023/03/24 08:02:01;;;;;;;12.02;10.95;;;10.90;99.90;;;;;;4996751;28;20380;-78
2023/03/24 08:04:41;;;;;;;14.85;13.10;;;10.80;99.90;;;;;;4980424;28;20042;-76
2023/03/24 08:07:36;;;;;;;14.38;12.90;;;10.90;99.90;;;;;;4986989;28;20080;-76
2023/03/24 08:10:02;;;;;;;12.70;11.60;;;10.70;99.90;;;;;;5000729;28;20686;-77
2023/03/24 08:12:29;;;;;;;12.65;10.52;;;10.70;99.90;;;;;;4997016;28;20048;-77
2023/03/24 08:14:56;;;;;;;12.82;11.68;;;10.90;99.90;;;;;;4983253;28;20045;-76
2023/03/24 08:17:22;;;;;;;13.48;12.25;;;11.10;99.90;;;;;;4997230;28;20042;-78
2023/03/24 08:19:49;;;;;;;16.85;15.35;;;11.20;99.90;;;;;;5005343;28;20104;-77
2023/03/24 08:22:26;;;;;;;16.25;14.93;;;11.30;99.90;;;;;;4998814;28;20104;-76
2023/03/24 08:24:53;;;;;;;18.38;17.00;;;11.50;99.90;;;;;;5004269;28;20114;-77
2023/03/24 08:27:20;;;;;;;18.95;17.25;;;11.50;99.90;;;;;;4997811;28;20057;-77
2023/03/24 08:29:47;;;;;;;20.30;18.67;;;11.50;99.90;;;;;;4999803;28;20512;-78
2023/03/24 08:32:13;;;;;;;20.98;18.83;;;11.30;99.90;;;;;;4998201;28;20036;-78
2023/03/24 08:34:40;;;;;;;23.52;21.67;;;11.00;99.90;;;;;;4999318;28;20125;-77
2023/03/24 08:37:10;;;;;;;22.98;20.65;;;10.80;99.90;;;;;;4996664;28;20060;-78
2023/03/24 08:39:37;;;;;;;23.90;22.00;;;10.60;99.90;;;;;;4995804;28;20042;-77
2023/03/24 08:42:04;;;;;;;24.88;23.20;;;10.50;99.90;;;;;;4999229;28;20288;-77
2023/03/24 08:44:31;;;;;;;24.42;22.65;;;10.60;99.90;;;;;;4985625;28;20132;-77
2023/03/24 08:47:00;;;;;;;25.58;23.45;;;10.70;99.90;;;;;;5000245;28;20050;-77
2023/03/24 08:49:27;;;;;;;25.58;23.50;;;10.70;99.90;;;;;;4982234;28;20060;-77
2023/03/24 08:51:54;;;;;;;24.15;22.63;;;10.80;99.90;;;;;;5000294;28;20144;-78
2023/03/24 08:54:22;;;;;;;26.40;23.98;;;10.90;99.90;;;;;;4997844;28;20116;-78
2023/03/24 08:56:49;;;;;;;24.05;21.95;;;10.80;99.90;;;;;;4982759;28;20042;-78
2023/03/24 08:59:17;;;;;;;26.35;24.25;;;10.90;99.90;;;;;;4998958;28;20137;-77
2023/03/24 09:01:44;;;;;;;24.90;22.67;;;10.90;99.90;;;;;;5000556;28;20042;-78
2023/03/24 09:04:11;;;;;;;26.15;23.98;;;11.00;99.90;;;;;;4999291;28;20092;-76
2023/03/24 09:06:38;;;;;;;26.58;24.27;;;11.00;99.90;;;;;;4996210;28;20038;-74
2023/03/24 09:09:06;;;;;;;27.30;24.52;;;11.00;99.90;;;;;;4983815;28;20145;-75
2023/03/24 09:11:33;;;;;;;27.70;25.02;;;10.90;99.90;;;;;;5002916;28;20041;-76
2023/03/24 09:14:03;;;;;;;24.92;23.08;;;10.90;99.90;;;;;;5000356;28;20451;-77
2023/03/24 09:16:30;;;;;;;26.25;24.38;;;11.00;99.90;;;;;;4998807;28;20049;-76
2023/03/24 09:18:57;;;;;;;28.23;26.20;;;11.10;99.90;;;;;;4983243;28;20093;-76
2023/03/24 09:21:24;;;;;;;27.73;25.08;;;11.20;99.90;;;;;;4999384;28;20159;-76
2023/03/24 09:23:50;;;;;;;26.52;24.52;;;11.10;99.90;;;;;;4996866;28;20076;-75
2023/03/24 09:26:17;;;;;;;27.20;24.95;;;11.10;99.90;;;;;;4998001;28;20081;-77
2023/03/24 09:28:44;;;;;;;26.70;24.75;;;11.10;99.90;;;;;;5005086;28;20037;-76
2023/03/24 09:31:11;;;;;;;26.65;24.65;;;11.10;99.90;;;;;;4981711;28;20050;-75
2023/03/24 09:33:37;;;;;;;24.83;22.75;;;11.10;99.90;;;;;;4987691;28;20068;-78
2023/03/24 09:36:04;;;;;;;26.77;24.58;;;11.30;99.90;;;;;;4998800;28;20042;-76
2023/03/24 09:38:33;;;;;;;26.25;24.27;;;11.80;99.90;;;;;;4998873;28;20049;-77
2023/03/24 09:41:01;;;;;;;28.20;25.95;;;12.00;99.90;;;;;;5003459;28;20044;-76
2023/03/24 09:43:40;;;;;;;27.17;25.38;;;12.20;99.90;;;;;;5002210;28;20085;-76
2023/03/24 09:46:35;;;;;;;29.65;27.75;;;12.60;99.90;;;;;;5002951;28;20459;-79
2023/03/24 09:49:03;;;;;;;28.90;26.40;;;12.80;99.90;;;;;;5001623;28;20057;-77
2023/03/24 09:51:38;;;;;;;28.60;26.38;;;13.00;99.90;;;;;;5002814;28;20050;-76
2023/03/24 09:54:26;;;;;;;27.33;25.60;;;12.90;99.90;;;;;;5001128;28;20034;-76
2023/03/24 09:56:54;;;;;;;30.83;28.85;;;12.50;99.90;;;;;;4986485;28;20537;-78
2023/03/24 09:59:40;;;;;;;29.13;26.67;;;12.00;99.90;;;;;;5002519;28;20044;-76
2023/03/24 10:02:15;;;;;;;;;;;11.60;99.90;;;;;;5002917;28;20555;-78
2023/03/24 10:04:42;;;;;;;27.17;25.70;;;11.70;99.90;;;;;;5008026;28;19964;-78
2023/03/24 10:07:32;;;;;;;26.50;24.65;;;11.70;99.90;;;;;;4988879;28;20338;-77
2023/03/24 10:10:00;;;;;;;27.55;25.50;;;11.70;99.90;;;;;;4989396;28;20053;-78
2023/03/24 10:12:34;;;;;;;26.08;23.88;;;12.10;99.90;;;;;;5009668;28;20423;-75
2023/03/24 10:15:14;;;;;;;29.75;27.55;;;12.20;99.90;;;;;;5006049;28;20074;-75
2023/03/24 10:18:11;;;;;;;24.63;22.88;;;12.20;99.90;;;;;;5001849;28;20104;-76
2023/03/24 10:20:50;;;;;;;24.80;23.08;;;12.30;99.90;;;;;;4981410;28;20124;-75
2023/03/24 10:23:39;;;;;;;27.17;24.98;;;12.20;99.90;;;;;;5006577;28;20078;-79
2023/03/24 10:26:30;;;;;;;26.00;23.33;;;12.20;99.90;;;;;;4985243;28;20049;-78
2023/03/24 10:29:13;;;;;;;26.05;24.20;;;12.20;99.90;;;;;;4989369;28;20065;-78
2023/03/24 10:31:41;;;;;;;28.85;26.38;;;12.20;99.90;;;;;;4980912;28;20076;-75
2023/03/24 10:34:11;;;;;;;29.45;27.30;;;12.20;99.90;;;;;;5006497;28;20509;-74
2023/03/24 10:36:40;;;;;;;27.13;24.88;;;12.30;99.90;;;;;;4998263;28;20034;-76
2023/03/24 10:39:15;;;;;;;27.42;24.75;;;12.40;99.90;;;;;;5004176;28;20076;-77
2023/03/24 10:41:52;;;;;;;29.58;27.30;;;12.80;99.90;;;;;;4997130;28;20050;-77
2023/03/24 10:44:20;;;;;;;31.58;29.25;;;12.70;99.90;;;;;;4999846;28;20498;-76
2023/03/24 10:46:51;;;;;;;31.60;29.40;;;12.60;99.90;;;;;;5006364;28;20046;-77
2023/03/24 10:49:20;;;;;;;29.20;27.23;;;12.50;99.90;;;;;;5000230;28;20042;-79
2023/03/24 10:52:01;;;;;;;29.80;27.75;;;12.40;99.90;;;;;;5001361;28;20061;-77
2023/03/24 10:54:29;;;;;;;29.40;26.80;;;12.30;99.90;;;;;;4999069;28;20141;-77
2023/03/24 10:56:59;;;;;;;30.00;27.73;;;12.30;99.90;;;;;;4998947;28;20046;-78
2023/03/24 10:59:53;;;;;;;26.45;24.70;;;12.30;99.90;;;;;;5005485;28;20048;-76
2023/03/24 11:02:25;;;;;;;25.67;23.73;;;12.30;99.90;;;;;;4985207;28;20073;-75
2023/03/24 11:05:12;;;;;;;25.95;24.15;;;12.40;99.90;;;;;;5007471;28;20724;-75
2023/03/24 11:07:43;;;;;;;28.05;24.58;;;12.40;99.90;;;;;;5001931;28;20049;-75
2023/03/24 11:10:10;;;;;;;26.92;24.58;;;12.30;99.90;;;;;;4998156;28;20070;-76
2023/03/24 11:12:39;;;;;;;26.15;24.42;;;12.30;99.90;;;;;;5006358;28;20507;-75
2023/03/24 11:15:22;;;;;;;24.90;22.98;;;12.20;99.90;;;;;;5002563;28;20034;-75
2023/03/24 11:17:57;;;;;;;25.48;23.58;;;12.20;99.90;;;;;;5002450;28;20055;-74
2023/03/24 11:20:34;;;;;;;24.63;22.85;;;12.60;99.90;;;;;;4998655;28;20427;-76
2023/03/24 11:23:25;;;;;;;24.88;23.08;;;12.80;99.90;;;;;;5000501;28;20137;-74
2023/03/24 11:26:21;;;;;;;25.77;23.90;;;13.00;99.90;;;;;;5004394;28;20041;-75
2023/03/24 11:28:54;;;;;;;25.50;23.10;;;12.70;99.90;;;;;;4994438;28;20438;-76
2023/03/24 11:31:33;;;;;;;29.75;27.90;;;12.70;99.90;;;;;;4999578;28;20450;-76
2023/03/24 11:34:15;;;;;;;27.67;24.80;;;12.90;99.90;;;;;;4998846;28;20046;-76
2023/03/24 11:36:47;;;;;;;28.13;25.63;;;13.20;99.90;;;;;;4995884;28;20050;-75
2023/03/24 11:39:23;;;;;;;25.90;23.70;;;13.10;99.90;;;;;;4982683;28;20088;-74
2023/03/24 11:42:01;;;;;;;32.85;30.58;;;12.80;99.90;;;;;;5003726;28;20056;-75
2023/03/24 11:44:37;;;;;;;26.85;24.75;;;12.90;99.90;;;;;;4999309;28;20785;-74
2023/03/24 11:47:23;;;;;;;27.48;25.55;;;13.30;99.90;;;;;;5000923;28;20042;-74
2023/03/24 11:50:08;;;;;;;29.42;27.20;;;13.50;99.90;;;;;;4995743;28;20099;-74
2023/03/24 11:53:05;;;;;;;30.10;27.77;;;13.20;99.90;;;;;;4998209;28;20053;-75
2023/03/24 11:55:46;;;;;;;28.55;26.58;;;13.10;99.90;;;;;;4997421;28;20049;-75
2023/03/24 11:58:35;;;;;;;29.27;27.08;;;13.10;99.90;;;;;;4997367;28;20050;-74
2023/03/24 12:01:26;;;;;;;31.42;29.15;;;12.80;99.90;;;;;;4993788;28;20088;-73
2023/03/24 12:04:06;;;;;;;32.10;29.70;;;12.80;99.90;;;;;;5001231;28;20165;-76
2023/03/24 12:06:34;;;;;;;30.98;28.67;;;12.80;99.90;;;;;;4979565;28;20054;-75
2023/03/24 12:09:31;;;;;;;29.80;27.52;;;12.80;99.90;;;;;;4998495;28;20280;-74
2023/03/24 12:12:27;;;;;;;27.98;25.58;;;12.90;99.90;;;;;;4993769;28;20050;-74
2023/03/24 12:15:24;;;;;;;29.35;26.95;;;13.00;99.90;;;;;;4979375;28;20046;-76
2023/03/24 12:18:15;;;;;;;33.15;30.45;;;12.90;99.90;;;;;;4997190;28;20084;-76
2023/03/24 12:21:03;;;;;;;32.35;29.73;;;13.00;99.90;;;;;;4997225;28;20159;-76
2023/03/24 12:23:58;;;;;;;31.15;28.95;;;13.30;99.90;;;;;;4996367;28;20052;-75
2023/03/24 12:26:29;;;;;;;34.17;31.40;;;13.70;99.90;;;;;;4996559;28;20033;-75
2023/03/24 12:28:57;;;;;;;32.92;30.38;;;13.80;99.90;;;;;;4999186;28;20141;-75
2023/03/24 12:31:42;;;;;;;32.35;30.35;;;14.10;99.90;;;;;;4998032;28;20037;-75
2023/03/24 12:34:12;;;;;;;31.10;29.10;;;14.20;99.90;;;;;;4998772;28;20038;-74
2023/03/24 12:36:56;;;;;;;30.80;28.25;;;14.00;99.90;;;;;;4992224;28;20068;-76
2023/03/24 12:39:34;;;;;;;31.02;28.70;;;14.00;99.90;;;;;;4995003;28;20224;-77
2023/03/24 12:42:09;;;;;;;32.45;29.45;;;13.90;99.90;;;;;;4997069;28;20042;-76
2023/03/24 12:44:49;;;;;;;29.95;27.63;;;13.70;99.90;;;;;;4992920;28;20052;-76
2023/03/24 12:47:54;;;;;;;33.20;30.83;;;13.60;99.90;;;;;;5001787;28;20582;-76
2023/03/24 12:50:37;;;;;;;31.10;28.75;;;13.60;99.90;;;;;;5010847;28;20046;-75
2023/03/24 12:53:28;;;;;;;30.88;28.88;;;13.80;99.90;;;;;;4980250;28;20442;-74
2023/03/24 12:56:01;;;;;;;33.25;30.60;;;13.60;99.90;;;;;;4993908;28;20645;-74
2023/03/24 12:58:28;;;;;;;29.42;27.23;;;13.30;99.90;;;;;;5001725;28;20050;-76
2023/03/24 13:01:06;;;;;;;29.77;27.10;;;13.10;99.90;;;;;;4998867;28;20349;-76
2023/03/24 13:03:42;;;;;;;28.52;26.38;;;13.40;99.90;;;;;;4997294;28;20514;-76
2023/03/24 13:06:19;;;;;;;29.10;26.83;;;13.40;99.90;;;;;;4978920;28;20042;-74
2023/03/24 13:09:02;;;;;;;29.88;27.67;;;13.40;99.90;;;;;;4993212;28;20113;-74
2023/03/24 13:11:36;;;;;;;28.67;26.10;;;13.50;99.90;;;;;;4981755;28;20518;-75
2023/03/24 13:14:09;;;;;;;28.70;26.88;;;13.60;99.90;;;;;;5000225;28;20128;-76
2023/03/24 13:16:38;;;;;;;31.58;29.10;;;13.50;99.90;;;;;;5001058;28;20049;-74
2023/03/24 13:19:17;;;;;;;31.05;28.75;;;13.30;99.90;;;;;;5002864;28;20403;-73